Time;durP1;ratioP1;P1;durP2;ratioP2;P2;SDS_P1;SDS_P2;PMS_P1;PMS_P2;Temp;Humidity;BMP_temperature;BMP_pressure;BME280_temperature;BME280_humidity;BME280_pressure;Samples;Min_cycle;Max_cycle;Signal;HPM_P1;HPM_P2
2023/12/08 00:01:20;;;;;;;5.53;5.00;;;2.10;99.90;;;;;;4983727;28;20125;-82
2023/12/08 00:03:46;;;;;;;6.57;5.97;;;2.10;99.90;;;;;;4972129;28;20077;-81
2023/12/08 00:06:12;;;;;;;6.93;6.40;;;2.10;99.90;;;;;;4997209;28;20081;-81
2023/12/08 00:08:37;;;;;;;8.83;5.73;;;2.10;99.90;;;;;;4998029;28;20045;-81
2023/12/08 00:11:04;;;;;;;6.13;5.53;;;2.10;99.90;;;;;;4969257;28;20030;-81
2023/12/08 00:13:29;;;;;;;7.35;5.72;;;2.10;99.90;;;;;;4999431;28;20034;-81
2023/12/08 00:15:55;;;;;;;11.87;6.77;;;2.00;99.90;;;;;;4997822;28;20100;-81
2023/12/08 00:18:21;;;;;;;7.90;7.30;;;2.00;99.90;;;;;;5015264;28;20041;-82
2023/12/08 00:20:47;;;;;;;9.88;5.95;;;2.00;99.90;;;;;;5020197;28;20133;-81
2023/12/08 00:23:12;;;;;;;5.10;4.30;;;2.10;99.90;;;;;;4984384;28;20106;-81
2023/12/08 00:25:38;;;;;;;7.43;5.23;;;2.10;99.90;;;;;;5002973;28;20085;-81
2023/12/08 00:28:04;;;;;;;4.77;4.10;;;2.10;99.90;;;;;;5001951;28;20046;-81
2023/12/08 00:30:29;;;;;;;5.27;4.80;;;2.00;99.90;;;;;;4973605;28;20042;-81
2023/12/08 00:32:55;;;;;;;7.33;6.00;;;2.10;99.90;;;;;;4991587;28;20049;-81
2023/12/08 00:35:22;;;;;;;5.27;4.97;;;2.00;99.90;;;;;;4986429;28;20042;-82
2023/12/08 00:37:48;;;;;;;18.93;4.87;;;2.00;99.90;;;;;;4977261;28;20072;-82
2023/12/08 00:40:15;;;;;;;6.00;5.37;;;2.10;99.90;;;;;;4984862;28;20056;-81
2023/12/08 00:42:40;;;;;;;5.07;3.27;;;2.10;99.90;;;;;;4994639;28;20129;-81
2023/12/08 00:45:06;;;;;;;8.07;5.35;;;2.10;99.90;;;;;;4996350;28;20504;-81
2023/12/08 00:47:32;;;;;;;6.80;4.00;;;2.00;99.90;;;;;;4981312;28;20695;-81
2023/12/08 00:49:57;;;;;;;6.53;4.00;;;2.00;99.90;;;;;;4990371;28;20441;-82
2023/12/08 00:52:23;;;;;;;9.10;5.28;;;2.10;99.90;;;;;;4979953;28;20053;-81
2023/12/08 00:54:48;;;;;;;9.73;4.73;;;2.00;99.90;;;;;;4993127;28;20160;-81
2023/12/08 00:57:15;;;;;;;6.83;5.80;;;2.00;99.90;;;;;;4992785;28;20471;-81
2023/12/08 00:59:40;;;;;;;5.63;5.13;;;2.00;99.90;;;;;;4983654;28;20054;-82
2023/12/08 01:02:06;;;;;;;4.10;3.80;;;2.00;99.90;;;;;;4981416;28;20457;-81
2023/12/08 01:04:31;;;;;;;6.33;4.60;;;2.10;99.90;;;;;;5001155;28;20064;-82
2023/12/08 01:06:57;;;;;;;11.10;5.33;;;2.00;99.90;;;;;;5002026;28;20046;-82
2023/12/08 01:09:23;;;;;;;5.03;4.60;;;2.00;99.90;;;;;;4985908;28;20046;-82
2023/12/08 01:11:48;;;;;;;6.07;5.40;;;2.10;99.90;;;;;;4982522;28;20516;-81
2023/12/08 01:14:14;;;;;;;6.03;5.63;;;2.00;99.90;;;;;;4994137;28;20493;-82
2023/12/08 01:16:43;;;;;;;8.00;6.57;;;2.10;99.90;;;;;;4975417;28;20050;-82
2023/12/08 01:19:10;;;;;;;5.50;4.90;;;2.10;99.90;;;;;;5000992;28;20046;-82
2023/12/08 01:21:37;;;;;;;4.60;3.50;;;2.00;99.90;;;;;;4997908;28;20046;-81
2023/12/08 01:24:04;;;;;;;5.93;5.27;;;2.00;99.90;;;;;;4989789;28;20042;-82
2023/12/08 01:26:29;;;;;;;6.30;5.73;;;2.10;99.90;;;;;;4987849;28;20037;-82
2023/12/08 01:28:55;;;;;;;5.40;4.90;;;2.10;99.90;;;;;;4968615;28;20047;-82
2023/12/08 01:31:21;;;;;;;5.97;5.30;;;2.10;99.90;;;;;;4999027;28;20084;-82
2023/12/08 01:33:47;;;;;;;3.93;3.50;;;2.00;99.90;;;;;;4988797;28;20042;-81
2023/12/08 01:36:12;;;;;;;5.83;5.37;;;2.10;99.90;;;;;;4982082;28;20105;-81
2023/12/08 01:38:38;;;;;;;5.77;5.27;;;2.10;99.90;;;;;;4997255;28;20038;-81
2023/12/08 01:41:04;;;;;;;8.23;7.17;;;2.10;99.90;;;;;;4997683;28;20049;-82
2023/12/08 01:43:29;;;;;;;11.50;6.33;;;2.10;99.90;;;;;;4991047;28;20049;-82
2023/12/08 01:45:57;;;;;;;7.33;5.00;;;2.10;99.90;;;;;;4990826;28;20046;-81
2023/12/08 01:48:24;;;;;;;6.33;4.43;;;2.10;99.90;;;;;;4974921;28;20034;-82
2023/12/08 01:50:50;;;;;;;7.40;6.60;;;2.10;99.90;;;;;;4990560;28;20038;-81
2023/12/08 01:53:16;;;;;;;5.60;4.53;;;2.10;99.90;;;;;;4983051;28;20038;-81
2023/12/08 01:55:42;;;;;;;5.13;4.73;;;2.10;99.90;;;;;;4981662;28;20436;-81
2023/12/08 01:58:08;;;;;;;5.73;4.87;;;2.10;99.90;;;;;;4981119;28;20045;-81
2023/12/08 02:00:34;;;;;;;8.37;5.17;;;2.10;99.90;;;;;;4978181;28;20061;-82
2023/12/08 02:03:00;;;;;;;5.50;4.95;;;2.10;99.90;;;;;;4978418;28;20050;-81
2023/12/08 02:05:26;;;;;;;3.47;3.20;;;2.10;99.90;;;;;;4980802;28;20046;-82
2023/12/08 02:07:53;;;;;;;4.90;4.50;;;2.10;99.90;;;;;;4969226;28;20140;-81
2023/12/08 02:10:19;;;;;;;3.27;3.07;;;2.10;99.90;;;;;;5082092;22;20065;-81
2023/12/08 02:12:45;;;;;;;6.87;6.07;;;2.10;99.90;;;;;;5009065;28;20038;-81
2023/12/08 02:15:12;;;;;;;5.13;4.37;;;2.10;99.90;;;;;;5001235;28;20049;-81
2023/12/08 02:17:38;;;;;;;4.47;4.00;;;2.10;99.90;;;;;;4998266;28;20455;-81
2023/12/08 02:20:09;;;;;;;5.37;4.83;;;2.10;99.90;;;;;;5001717;28;20060;-81
2023/12/08 02:22:35;;;;;;;6.27;4.37;;;2.10;99.90;;;;;;5003214;28;20454;-81
2023/12/08 02:25:01;;;;;;;5.80;5.13;;;2.10;99.90;;;;;;4993760;28;20045;-81
2023/12/08 02:27:27;;;;;;;6.13;5.63;;;2.10;99.90;;;;;;5003533;28;20053;-81
2023/12/08 02:29:53;;;;;;;4.77;4.20;;;2.10;99.90;;;;;;4994573;28;20042;-81
2023/12/08 02:32:28;;;;;;;5.20;4.83;;;2.10;99.90;;;;;;4990520;28;20041;-81
2023/12/08 02:34:55;;;;;;;4.73;4.33;;;2.10;99.90;;;;;;5017744;28;20165;-82
2023/12/08 02:37:22;;;;;;;5.87;5.47;;;2.10;99.90;;;;;;5002813;28;20128;-81
2023/12/08 02:39:48;;;;;;;9.50;4.70;;;2.10;99.90;;;;;;5011706;28;20065;-81
2023/12/08 02:42:14;;;;;;;4.40;4.10;;;2.10;99.90;;;;;;5008644;28;20484;-81
2023/12/08 02:44:40;;;;;;;5.57;4.43;;;2.10;99.90;;;;;;4982610;28;20089;-81
2023/12/08 02:47:06;;;;;;;14.50;7.30;;;2.10;99.90;;;;;;4992665;28;20457;-81
2023/12/08 02:49:33;;;;;;;7.03;6.20;;;2.10;99.90;;;;;;5001356;28;20065;-81
2023/12/08 02:51:58;;;;;;;5.32;4.57;;;2.10;99.90;;;;;;5002368;28;20038;-81
2023/12/08 02:54:24;;;;;;;4.75;4.20;;;2.10;99.90;;;;;;5000380;28;20120;-81
2023/12/08 02:56:49;;;;;;;7.73;7.13;;;2.10;99.90;;;;;;5000720;28;20042;-81
2023/12/08 02:59:15;;;;;;;5.73;5.30;;;2.10;99.90;;;;;;5000186;28;20038;-81
2023/12/08 03:01:40;;;;;;;4.47;4.07;;;2.10;99.90;;;;;;4991622;28;20046;-82
2023/12/08 03:04:06;;;;;;;7.20;5.20;;;2.10;99.90;;;;;;4999883;28;20042;-81
2023/12/08 03:06:31;;;;;;;6.57;5.97;;;2.10;99.90;;;;;;5019040;28;20403;-81
2023/12/08 03:08:57;;;;;;;6.67;6.13;;;2.10;99.90;;;;;;5014476;28;20123;-81
2023/12/08 03:11:22;;;;;;;4.53;4.23;;;2.10;99.90;;;;;;4989769;28;20133;-81
2023/12/08 03:13:48;;;;;;;6.63;6.00;;;2.10;99.90;;;;;;4975530;28;20049;-81
2023/12/08 03:16:14;;;;;;;10.07;7.77;;;2.10;99.90;;;;;;5012590;28;20571;-81
2023/12/08 03:18:39;;;;;;;11.30;7.57;;;2.10;99.90;;;;;;5006919;28;20045;-81
2023/12/08 03:21:05;;;;;;;8.70;5.90;;;2.10;99.90;;;;;;5017690;28;20050;-81
2023/12/08 03:23:31;;;;;;;6.93;6.37;;;2.10;99.90;;;;;;5021262;28;20038;-81
2023/12/08 03:25:56;;;;;;;4.68;4.25;;;2.10;99.90;;;;;;5003788;28;20500;-81
2023/12/08 03:28:22;;;;;;;6.03;5.60;;;2.10;99.90;;;;;;5006587;28;20038;-81
2023/12/08 03:30:47;;;;;;;4.87;4.23;;;2.10;99.90;;;;;;5007043;28;20496;-81
2023/12/08 03:33:13;;;;;;;6.20;5.70;;;2.10;99.90;;;;;;5003936;28;20404;-80
2023/12/08 03:35:38;;;;;;;5.53;5.03;;;2.10;99.90;;;;;;5023620;28;20402;-81
2023/12/08 03:38:04;;;;;;;7.65;6.70;;;2.10;99.90;;;;;;5002139;28;20507;-81
2023/12/08 03:40:29;;;;;;;8.53;7.43;;;2.10;99.90;;;;;;5015213;28;20584;-81
2023/12/08 03:42:55;;;;;;;7.00;6.27;;;2.10;99.90;;;;;;5006215;28;20475;-81
2023/12/08 03:45:21;;;;;;;11.35;5.88;;;2.10;99.90;;;;;;5005524;28;20404;-81
2023/12/08 03:47:46;;;;;;;5.80;4.73;;;2.10;99.90;;;;;;5003930;28;20034;-81
2023/12/08 03:50:12;;;;;;;6.73;6.00;;;2.10;99.90;;;;;;5021100;28;20147;-81
2023/12/08 03:52:37;;;;;;;6.23;4.97;;;2.10;99.90;;;;;;5021617;28;20045;-81
2023/12/08 03:55:03;;;;;;;7.17;6.47;;;2.10;99.90;;;;;;5017839;28;20050;-81
2023/12/08 03:57:29;;;;;;;6.33;5.83;;;2.10;99.90;;;;;;5022998;28;20127;-80
2023/12/08 03:59:54;;;;;;;6.10;5.53;;;2.10;99.90;;;;;;5007808;28;20112;-81
2023/12/08 04:02:20;;;;;;;5.93;5.03;;;2.10;99.90;;;;;;4999368;28;20053;-81
2023/12/08 04:04:46;;;;;;;11.53;6.80;;;2.10;99.90;;;;;;5000724;28;20045;-81
2023/12/08 04:07:11;;;;;;;10.33;6.07;;;2.10;99.90;;;;;;5015684;28;20042;-81
2023/12/08 04:09:37;;;;;;;8.37;7.50;;;2.00;99.90;;;;;;5004522;28;20050;-81
2023/12/08 04:12:03;;;;;;;4.95;4.43;;;2.00;99.90;;;;;;4995682;28;20077;-81
2023/12/08 04:14:28;;;;;;;8.07;4.93;;;2.00;99.90;;;;;;5004055;28;20045;-81
2023/12/08 04:16:54;;;;;;;5.20;4.80;;;2.00;99.90;;;;;;5002940;28;20504;-81
2023/12/08 04:19:20;;;;;;;8.40;7.60;;;2.00;99.90;;;;;;5003026;28;20610;-82
2023/12/08 04:21:45;;;;;;;4.30;4.00;;;2.00;99.90;;;;;;5005010;28;20598;-80
2023/12/08 04:24:12;;;;;;;6.03;5.50;;;2.00;99.90;;;;;;5001913;28;20391;-81
2023/12/08 04:26:43;;;;;;;7.07;6.47;;;2.00;99.90;;;;;;5004275;28;20046;-81
2023/12/08 04:29:08;;;;;;;8.87;5.80;;;2.00;99.90;;;;;;5014236;28;20269;-81
2023/12/08 04:31:34;;;;;;;6.10;5.40;;;2.00;99.90;;;;;;5003504;28;20504;-81
2023/12/08 04:33:59;;;;;;;7.53;6.77;;;2.00;99.90;;;;;;5002918;28;20068;-81
2023/12/08 04:36:25;;;;;;;7.97;7.20;;;2.00;99.90;;;;;;4994871;28;20044;-81
2023/12/08 04:38:51;;;;;;;5.77;5.37;;;2.00;99.90;;;;;;5021679;28;20076;-81
2023/12/08 04:41:16;;;;;;;5.77;5.37;;;2.00;99.90;;;;;;5019138;28;20055;-81
2023/12/08 04:43:42;;;;;;;7.50;5.40;;;2.00;99.90;;;;;;5004179;28;20079;-81
2023/12/08 04:46:07;;;;;;;7.27;6.30;;;1.90;99.90;;;;;;5014593;28;20041;-81
2023/12/08 04:48:33;;;;;;;9.33;7.90;;;2.00;99.90;;;;;;4999155;28;20045;-81
2023/12/08 04:50:59;;;;;;;9.23;8.30;;;1.90;99.90;;;;;;4985301;28;20888;-81
2023/12/08 04:53:24;;;;;;;7.43;6.73;;;1.90;99.90;;;;;;5003957;28;20101;-80
2023/12/08 04:55:50;;;;;;;8.47;7.80;;;1.90;99.90;;;;;;5009810;28;20160;-81
2023/12/08 04:58:16;;;;;;;11.00;8.13;;;1.90;99.90;;;;;;4984924;28;20041;-81
2023/12/08 05:00:42;;;;;;;9.93;7.07;;;1.90;99.90;;;;;;5002136;28;20050;-80
2023/12/08 05:03:07;;;;;;;6.80;6.10;;;1.90;99.90;;;;;;5002463;28;20408;-80
2023/12/08 05:05:33;;;;;;;9.67;7.27;;;1.90;99.90;;;;;;5011809;28;20049;-80
2023/12/08 05:07:58;;;;;;;10.90;8.30;;;1.80;99.90;;;;;;4985593;28;20046;-81
2023/12/08 05:10:24;;;;;;;6.13;5.53;;;1.80;99.90;;;;;;5003176;28;20084;-81
2023/12/08 05:12:49;;;;;;;8.37;7.40;;;1.80;99.90;;;;;;4997556;28;20419;-81
2023/12/08 05:15:15;;;;;;;14.30;7.77;;;1.80;99.90;;;;;;5005508;28;20125;-80
2023/12/08 05:17:41;;;;;;;8.70;7.67;;;1.80;99.90;;;;;;5008914;28;20459;-81
2023/12/08 05:20:07;;;;;;;9.20;8.17;;;1.80;99.90;;;;;;5002590;28;20100;-80
2023/12/08 05:22:32;;;;;;;7.73;7.00;;;1.80;99.90;;;;;;5017888;28;20033;-80
2023/12/08 05:24:58;;;;;;;12.33;7.83;;;1.80;99.90;;;;;;5013278;28;20448;-80
2023/12/08 05:27:24;;;;;;;8.80;7.30;;;1.80;99.90;;;;;;5007899;28;20056;-80
2023/12/08 05:29:49;;;;;;;7.30;6.43;;;1.70;99.90;;;;;;5003081;28;20514;-81
2023/12/08 05:32:15;;;;;;;8.03;7.23;;;1.80;99.90;;;;;;5000161;28;20037;-80
2023/12/08 05:34:40;;;;;;;7.77;6.30;;;1.70;99.90;;;;;;4995649;28;20141;-80
2023/12/08 05:37:06;;;;;;;8.20;7.40;;;1.70;99.90;;;;;;5002185;28;20038;-81
2023/12/08 05:39:32;;;;;;;8.67;7.97;;;1.70;99.90;;;;;;4999601;28;20041;-82
2023/12/08 05:41:57;;;;;;;8.43;7.63;;;1.70;99.90;;;;;;4988203;28;20612;-81
2023/12/08 05:44:23;;;;;;;7.83;7.20;;;1.70;99.90;;;;;;4998772;28;20041;-81
2023/12/08 05:46:48;;;;;;;9.57;8.60;;;1.70;99.90;;;;;;5002557;28;20523;-81
2023/12/08 05:49:17;;;;;;;8.73;7.87;;;1.70;99.90;;;;;;4997988;28;20733;-80
2023/12/08 05:51:43;;;;;;;7.53;6.57;;;1.70;99.90;;;;;;4995751;28;20221;-80
2023/12/08 05:54:09;;;;;;;9.37;6.30;;;1.70;99.90;;;;;;4995248;28;20053;-80
2023/12/08 05:56:34;;;;;;;8.57;6.63;;;1.70;99.90;;;;;;4993566;28;20042;-79
2023/12/08 05:59:00;;;;;;;10.60;8.70;;;1.70;99.90;;;;;;4995087;28;20627;-79
2023/12/08 06:01:26;;;;;;;10.13;9.10;;;1.70;99.90;;;;;;4998159;28;20385;-80
2023/12/08 06:03:51;;;;;;;10.63;9.57;;;1.60;99.90;;;;;;5001691;28;20026;-79
2023/12/08 06:06:17;;;;;;;12.90;7.53;;;1.60;99.90;;;;;;5016264;28;20050;-79
2023/12/08 06:08:43;;;;;;;6.57;6.07;;;1.70;99.90;;;;;;5005406;28;20052;-78
2023/12/08 06:11:08;;;;;;;7.83;6.93;;;1.60;99.90;;;;;;5013935;28;20046;-78
2023/12/08 06:13:34;;;;;;;10.43;8.53;;;1.70;99.90;;;;;;5002600;28;20060;-78
2023/12/08 06:16:00;;;;;;;8.87;8.07;;;1.60;99.90;;;;;;5004727;28;20483;-78
2023/12/08 06:18:26;;;;;;;8.47;7.57;;;1.60;99.90;;;;;;4989929;28;20045;-78
2023/12/08 06:20:51;;;;;;;10.07;8.87;;;1.70;99.90;;;;;;5011334;28;20450;-78
2023/12/08 06:23:17;;;;;;;7.40;6.43;;;1.70;99.90;;;;;;5021930;28;20041;-79
2023/12/08 06:25:43;;;;;;;9.93;9.07;;;1.70;99.90;;;;;;4993475;28;20428;-79
2023/12/08 06:28:08;;;;;;;7.23;6.73;;;1.60;99.90;;;;;;5000759;28;20137;-78
2023/12/08 06:30:34;;;;;;;9.17;8.30;;;1.70;99.90;;;;;;4997963;28;20058;-79
2023/12/08 06:32:59;;;;;;;15.10;9.43;;;1.70;99.90;;;;;;5002460;28;20034;-78
2023/12/08 06:35:25;;;;;;;14.37;9.63;;;1.70;99.90;;;;;;4995394;28;20045;-79
2023/12/08 06:37:50;;;;;;;12.10;9.33;;;1.70;99.90;;;;;;5006722;28;20072;-79
2023/12/08 06:40:16;;;;;;;7.60;6.83;;;1.70;99.90;;;;;;4997592;28;20077;-79
2023/12/08 06:42:42;;;;;;;8.23;7.53;;;1.70;99.90;;;;;;4999441;28;20120;-78
2023/12/08 06:45:08;;;;;;;7.93;7.13;;;1.70;99.90;;;;;;4996116;28;20504;-79
2023/12/08 06:47:34;;;;;;;12.07;9.23;;;1.70;99.90;;;;;;4985791;28;20053;-79
2023/12/08 06:49:59;;;;;;;6.97;6.27;;;1.70;99.90;;;;;;4986388;28;20484;-76
2023/12/08 06:52:25;;;;;;;10.60;7.97;;;1.70;99.90;;;;;;4999453;28;20081;-77
2023/12/08 06:54:51;;;;;;;8.00;7.37;;;1.70;99.90;;;;;;4991583;28;20063;-79
2023/12/08 06:57:16;;;;;;;9.57;7.47;;;1.70;99.90;;;;;;4986200;28;20249;-77
2023/12/08 06:59:42;;;;;;;8.57;6.87;;;1.70;99.90;;;;;;4976434;28;20431;-77
2023/12/08 07:02:07;;;;;;;7.17;6.60;;;1.70;99.90;;;;;;4997040;28;20112;-77
2023/12/08 07:04:33;;;;;;;10.27;9.40;;;1.70;99.90;;;;;;4998781;28;20508;-78
2023/12/08 07:06:58;;;;;;;14.53;9.13;;;1.70;99.90;;;;;;4996301;28;20176;-78
2023/12/08 07:09:24;;;;;;;7.40;6.70;;;1.70;99.90;;;;;;4986738;28;20132;-77
2023/12/08 07:11:50;;;;;;;10.10;9.17;;;1.70;99.90;;;;;;4987269;28;20057;-77
2023/12/08 07:14:15;;;;;;;10.03;9.27;;;1.70;99.90;;;;;;4997848;28;20058;-77
2023/12/08 07:16:44;;;;;;;11.27;10.33;;;1.70;99.90;;;;;;4998305;28;20157;-77
2023/12/08 07:19:10;;;;;;;11.33;10.23;;;1.80;99.90;;;;;;4985107;28;20108;-77
2023/12/08 07:21:44;;;;;;;8.23;7.63;;;1.70;99.90;;;;;;4987460;28;20121;-76
2023/12/08 07:24:11;;;;;;;8.23;7.40;;;1.70;99.90;;;;;;4998726;28;20057;-77
2023/12/08 07:26:36;;;;;;;9.93;8.97;;;1.70;99.90;;;;;;4991280;28;20045;-77
2023/12/08 07:29:02;;;;;;;15.87;8.90;;;1.80;99.90;;;;;;4980949;28;20512;-81
2023/12/08 07:31:28;;;;;;;9.50;8.47;;;1.70;99.90;;;;;;4966375;28;20027;-80
2023/12/08 07:33:54;;;;;;;7.40;6.70;;;1.70;99.90;;;;;;4993953;28;20812;-78
2023/12/08 07:36:20;;;;;;;11.23;8.50;;;1.80;99.90;;;;;;5000744;28;20038;-78
2023/12/08 07:38:45;;;;;;;8.73;7.93;;;1.70;99.90;;;;;;4986865;28;20041;-77
2023/12/08 07:41:11;;;;;;;9.03;8.17;;;1.80;99.90;;;;;;4997279;28;20068;-78
2023/12/08 07:43:36;;;;;;;9.53;7.33;;;1.70;99.90;;;;;;4998035;28;20199;-77
2023/12/08 07:46:02;;;;;;;7.07;6.50;;;1.80;99.90;;;;;;4992534;28;20382;-81
2023/12/08 07:48:28;;;;;;;6.17;5.77;;;1.80;99.90;;;;;;4983303;28;20046;-77
2023/12/08 07:50:55;;;;;;;8.67;7.87;;;1.80;99.90;;;;;;4997611;28;20140;-78
2023/12/08 07:53:20;;;;;;;8.30;7.63;;;1.80;99.90;;;;;;4997920;28;20189;-80
2023/12/08 07:55:46;;;;;;;10.93;8.03;;;1.80;99.90;;;;;;4991433;28;20035;-78
2023/12/08 07:58:11;;;;;;;14.93;7.60;;;1.80;99.90;;;;;;4978863;28;20051;-78
2023/12/08 08:00:37;;;;;;;13.03;7.70;;;1.80;99.90;;;;;;4994465;28;20203;-81
2023/12/08 08:03:04;;;;;;;8.23;7.63;;;1.80;99.90;;;;;;4980365;28;20124;-77
2023/12/08 08:05:30;;;;;;;10.53;8.73;;;1.80;99.90;;;;;;4982746;28;20053;-78
2023/12/08 08:07:56;;;;;;;10.90;9.90;;;1.80;99.90;;;;;;5002222;28;20042;-78
2023/12/08 08:10:21;;;;;;;10.83;9.93;;;1.80;99.90;;;;;;4993796;28;20038;-78
2023/12/08 08:12:47;;;;;;;10.90;9.87;;;1.80;99.90;;;;;;4983107;28;20432;-78
2023/12/08 08:15:12;;;;;;;9.67;8.77;;;1.80;99.90;;;;;;4997632;28;20037;-77
2023/12/08 08:17:38;;;;;;;9.87;8.77;;;1.80;99.90;;;;;;4991720;28;20559;-78
2023/12/08 08:20:05;;;;;;;8.27;6.47;;;1.80;99.90;;;;;;4995126;28;20081;-78
2023/12/08 08:22:31;;;;;;;12.17;8.33;;;1.80;99.90;;;;;;4996794;28;20046;-78
2023/12/08 08:24:57;;;;;;;9.03;8.37;;;1.80;99.90;;;;;;4994374;28;20049;-78
2023/12/08 08:27:22;;;;;;;13.17;10.63;;;1.80;99.90;;;;;;4976121;28;20038;-81
2023/12/08 08:29:48;;;;;;;10.77;8.37;;;1.80;99.90;;;;;;4984316;28;20496;-76
2023/12/08 08:32:17;;;;;;;10.53;9.33;;;1.80;99.90;;;;;;4980324;28;20062;-76
2023/12/08 08:34:42;;;;;;;13.40;9.00;;;1.80;99.90;;;;;;4992176;28;20329;-76
2023/12/08 08:37:08;;;;;;;9.00;8.27;;;1.80;99.90;;;;;;4981246;28;20064;-84
2023/12/08 08:39:34;;;;;;;14.47;8.93;;;1.80;99.90;;;;;;4992129;28;20579;-78
2023/12/08 08:41:59;;;;;;;10.37;9.37;;;1.90;99.90;;;;;;4982873;28;20042;-78
2023/12/08 08:44:27;;;;;;;9.70;8.97;;;1.90;99.90;;;;;;5001404;28;20054;-77
2023/12/08 08:46:53;;;;;;;10.00;9.10;;;1.90;99.90;;;;;;4998833;28;20056;-74
2023/12/08 08:49:19;;;;;;;11.17;9.30;;;1.80;99.90;;;;;;5002473;28;20333;-74
2023/12/08 08:51:44;;;;;;;7.70;7.00;;;1.80;99.90;;;;;;5001868;28;20041;-74
2023/12/08 08:54:10;;;;;;;8.90;8.10;;;1.80;99.90;;;;;;4973462;28;20114;-74
2023/12/08 08:56:36;;;;;;;10.03;9.03;;;1.80;99.90;;;;;;5000462;28;20377;-74
2023/12/08 08:59:03;;;;;;;7.43;6.40;;;1.80;99.90;;;;;;4980939;28;20057;-74
2023/12/08 09:01:29;;;;;;;11.07;9.97;;;1.80;99.90;;;;;;4981798;28;20046;-74
2023/12/08 09:03:54;;;;;;;10.80;8.23;;;1.70;99.90;;;;;;4982394;28;20034;-74
2023/12/08 09:06:20;;;;;;;10.00;8.27;;;1.80;99.90;;;;;;4980919;28;20607;-74
2023/12/08 09:08:46;;;;;;;9.93;9.03;;;1.80;99.90;;;;;;4991951;28;20436;-74
2023/12/08 09:11:12;;;;;;;12.83;10.20;;;1.80;99.90;;;;;;4985442;28;20392;-74
2023/12/08 09:13:38;;;;;;;9.90;9.30;;;1.80;99.90;;;;;;4982218;28;20437;-74
2023/12/08 09:16:04;;;;;;;11.63;8.67;;;1.80;99.90;;;;;;4984680;28;20049;-74
2023/12/08 09:18:29;;;;;;;14.43;9.23;;;1.80;99.90;;;;;;4997999;28;20042;-74
2023/12/08 09:20:55;;;;;;;12.40;9.60;;;1.80;99.90;;;;;;4988470;28;20095;-74
2023/12/08 09:23:20;;;;;;;11.67;9.63;;;1.80;99.90;;;;;;5001706;28;20532;-74
2023/12/08 09:25:47;;;;;;;10.47;7.77;;;1.80;99.90;;;;;;4970670;28;20050;-74
2023/12/08 09:28:13;;;;;;;9.17;8.30;;;1.80;99.90;;;;;;4980856;28;20088;-74
2023/12/08 09:30:38;;;;;;;22.10;8.87;;;1.80;99.90;;;;;;4980532;28;20050;-73
2023/12/08 09:33:04;;;;;;;9.97;9.17;;;1.90;99.90;;;;;;4984651;28;20038;-73
2023/12/08 09:35:30;;;;;;;8.30;7.70;;;1.90;99.90;;;;;;4987878;28;20042;-73
2023/12/08 09:37:55;;;;;;;12.40;9.03;;;1.90;99.90;;;;;;4993247;28;20148;-73
2023/12/08 09:40:23;;;;;;;14.07;10.10;;;2.00;99.90;;;;;;4981718;28;20034;-74
2023/12/08 09:42:57;;;;;;;9.60;7.83;;;2.00;99.90;;;;;;4985159;28;20059;-73
2023/12/08 09:45:22;;;;;;;12.73;11.57;;;2.00;99.90;;;;;;4967828;28;20056;-73
2023/12/08 09:47:50;;;;;;;10.23;8.30;;;2.00;99.90;;;;;;4994974;28;20046;-73
2023/12/08 09:50:17;;;;;;;9.63;8.60;;;2.00;99.90;;;;;;4997237;28;20306;-73
2023/12/08 09:52:44;;;;;;;14.20;8.47;;;2.10;99.90;;;;;;4996807;28;20034;-73
2023/12/08 09:55:10;;;;;;;9.83;9.03;;;2.10;99.90;;;;;;4988361;28;20053;-73
2023/12/08 09:57:37;;;;;;;12.47;7.80;;;2.10;99.90;;;;;;4996851;28;20432;-73
2023/12/08 10:00:13;;;;;;;12.80;9.40;;;2.10;99.90;;;;;;4998426;28;20161;-73
2023/12/08 10:02:43;;;;;;;10.67;9.70;;;2.10;99.90;;;;;;4981360;28;20093;-73
2023/12/08 10:05:11;;;;;;;11.10;9.47;;;2.10;99.90;;;;;;4985797;28;20081;-73
2023/12/08 10:07:40;;;;;;;9.63;8.63;;;2.10;99.90;;;;;;4986510;28;20049;-73
2023/12/08 10:10:08;;;;;;;16.57;9.67;;;2.10;99.90;;;;;;4999261;28;20235;-73
2023/12/08 10:12:33;;;;;;;9.57;8.50;;;2.20;99.90;;;;;;4999493;28;20551;-73
2023/12/08 10:15:01;;;;;;;8.37;7.57;;;2.20;99.90;;;;;;4987705;28;20070;-73
2023/12/08 10:17:26;;;;;;;9.70;8.87;;;2.20;99.90;;;;;;4978929;28;20038;-73
2023/12/08 10:20:11;;;;;;;10.07;9.27;;;2.20;99.90;;;;;;4980852;28;20054;-74
2023/12/08 10:23:03;;;;;;;14.50;11.93;;;2.20;99.90;;;;;;4980818;28;20046;-73
2023/12/08 10:25:28;;;;;;;8.27;7.67;;;2.20;99.90;;;;;;4976858;28;20050;-73
2023/12/08 10:27:55;;;;;;;10.53;8.93;;;2.20;99.90;;;;;;4978300;28;20077;-73
2023/12/08 10:30:23;;;;;;;11.17;9.97;;;2.30;99.90;;;;;;4968299;28;20038;-74
2023/12/08 10:32:49;;;;;;;13.20;9.47;;;2.30;99.90;;;;;;4997508;28;20065;-73
2023/12/08 10:35:15;;;;;;;10.27;9.37;;;2.30;99.90;;;;;;4996696;28;20136;-73
2023/12/08 10:37:42;;;;;;;10.53;8.70;;;2.30;99.90;;;;;;4979270;28;20042;-73
2023/12/08 10:40:12;;;;;;;11.00;10.03;;;2.30;99.90;;;;;;4979504;28;20046;-73
2023/12/08 10:42:38;;;;;;;15.70;10.57;;;2.30;99.90;;;;;;4985201;28;20042;-73
2023/12/08 10:45:11;;;;;;;12.10;11.27;;;2.30;99.90;;;;;;4987485;28;20057;-74
2023/12/08 10:47:39;;;;;;;9.90;9.17;;;2.30;99.90;;;;;;4963222;28;20046;-73
2023/12/08 10:50:06;;;;;;;9.20;8.40;;;2.30;99.90;;;;;;4978689;28;20129;-73
2023/12/08 10:52:32;;;;;;;10.32;9.32;;;2.40;99.90;;;;;;4990612;28;20053;-73
2023/12/08 10:54:58;;;;;;;11.07;10.03;;;2.40;99.90;;;;;;4990862;28;20038;-73
2023/12/08 10:57:23;;;;;;;10.07;8.98;;;2.40;99.90;;;;;;4995067;28;20467;-73
2023/12/08 10:59:53;;;;;;;12.67;9.57;;;2.40;99.90;;;;;;4998715;28;20053;-73
2023/12/08 11:02:30;;;;;;;19.80;10.43;;;2.40;99.90;;;;;;4995620;28;20534;-73
2023/12/08 11:05:00;;;;;;;9.90;8.07;;;2.40;99.90;;;;;;4998204;28;20046;-74
2023/12/08 11:07:32;;;;;;;12.70;10.02;;;2.40;99.90;;;;;;4979434;28;20296;-73
2023/12/08 11:10:01;;;;;;;16.45;12.57;;;2.50;99.90;;;;;;4994714;28;20619;-73
2023/12/08 11:12:29;;;;;;;10.68;9.55;;;2.50;99.90;;;;;;4987468;28;20084;-74
2023/12/08 11:15:05;;;;;;;11.13;10.20;;;2.50;99.90;;;;;;4980628;28;20338;-73
2023/12/08 11:17:33;;;;;;;9.83;8.23;;;2.50;99.90;;;;;;4992902;28;20050;-73
2023/12/08 11:20:00;;;;;;;8.07;7.37;;;2.50;99.90;;;;;;4974461;28;20035;-74
2023/12/08 11:22:25;;;;;;;14.77;8.77;;;2.50;99.90;;;;;;4980049;28;20074;-74
2023/12/08 11:24:51;;;;;;;16.27;12.50;;;2.50;99.90;;;;;;4979763;28;20105;-74
2023/12/08 11:27:40;;;;;;;13.87;12.47;;;2.60;99.90;;;;;;4986426;28;20512;-74
2023/12/08 11:30:14;;;;;;;28.08;11.63;;;2.60;99.90;;;;;;4978511;28;20065;-74
2023/12/08 11:33:05;;;;;;;12.43;11.43;;;2.60;99.90;;;;;;5012688;28;20633;-73
2023/12/08 11:35:31;;;;;;;11.60;10.43;;;2.60;99.90;;;;;;4994170;28;20054;-74
2023/12/08 11:37:56;;;;;;;14.50;13.02;;;2.60;99.90;;;;;;4987854;28;20049;-74
2023/12/08 11:40:22;;;;;;;16.55;9.38;;;2.60;99.90;;;;;;4964776;28;20042;-74
2023/12/08 11:42:50;;;;;;;8.73;8.05;;;2.60;99.90;;;;;;4985095;28;20038;-74
2023/12/08 11:45:17;;;;;;;14.27;12.65;;;2.70;99.90;;;;;;4988526;28;20046;-74
2023/12/08 11:47:43;;;;;;;9.95;9.15;;;2.70;99.90;;;;;;5002502;28;20068;-74
2023/12/08 11:50:11;;;;;;;21.45;10.35;;;2.70;99.90;;;;;;4985152;28;20050;-74
2023/12/08 11:52:37;;;;;;;10.85;9.95;;;2.70;99.90;;;;;;4983539;28;20039;-74
2023/12/08 11:57:58;;;;;;;12.25;9.88;;;2.70;99.90;;;;;;4992946;28;20054;-73
2023/12/08 12:00:25;;;;;;;9.70;8.57;;;2.70;99.90;;;;;;4983824;28;20141;-73
2023/12/08 12:02:52;;;;;;;13.65;12.40;;;2.70;99.90;;;;;;4966101;28;20121;-74
2023/12/08 12:05:18;;;;;;;10.80;9.13;;;2.80;99.90;;;;;;5000839;28;20376;-74
2023/12/08 12:07:46;;;;;;;13.18;12.07;;;2.70;99.90;;;;;;4992332;28;20069;-74
2023/12/08 12:10:12;;;;;;;17.48;8.98;;;2.80;99.90;;;;;;4991128;28;20692;-74
2023/12/08 12:12:42;;;;;;;15.50;10.48;;;2.80;99.90;;;;;;5001833;28;20301;-74
2023/12/08 12:15:10;;;;;;;19.58;15.95;;;2.80;99.90;;;;;;5000340;28;20050;-74
2023/12/08 12:17:37;;;;;;;12.38;10.55;;;2.80;99.90;;;;;;5001302;28;20046;-74
2023/12/08 12:20:03;;;;;;;13.23;11.98;;;2.80;99.90;;;;;;4972138;28;20051;-74
2023/12/08 12:22:28;;;;;;;14.85;10.88;;;2.80;99.90;;;;;;4982042;28;20054;-79
2023/12/08 12:24:54;;;;;;;15.75;13.02;;;2.80;99.90;;;;;;4978121;28;20050;-73
2023/12/08 12:27:20;;;;;;;13.25;11.13;;;2.80;99.90;;;;;;4999057;28;20034;-74
2023/12/08 12:29:46;;;;;;;11.68;10.55;;;2.80;99.90;;;;;;5001521;28;20153;-74
2023/12/08 12:32:12;;;;;;;12.18;10.85;;;2.90;99.90;;;;;;4999152;28;20073;-74
2023/12/08 12:34:38;;;;;;;19.35;11.02;;;2.90;99.90;;;;;;4982724;28;20081;-74
2023/12/08 12:37:08;;;;;;;17.50;11.57;;;2.90;99.90;;;;;;4995755;28;20044;-74
2023/12/08 12:39:34;;;;;;;19.17;16.85;;;3.00;99.90;;;;;;5001203;28;20050;-74
2023/12/08 12:42:01;;;;;;;22.50;19.30;;;3.00;99.90;;;;;;4994561;28;20039;-74
2023/12/08 12:44:44;;;;;;;22.10;20.00;;;2.90;99.90;;;;;;4987569;28;20136;-74
2023/12/08 12:47:10;;;;;;;13.48;12.07;;;3.00;99.90;;;;;;4987462;28;20071;-74
2023/12/08 12:50:04;;;;;;;16.90;14.73;;;3.00;99.90;;;;;;5001067;28;20046;-74
2023/12/08 12:52:31;;;;;;;13.98;12.07;;;3.00;99.90;;;;;;4991303;28;20046;-74